Terminal Aerodrome Forecast
Issued by NWS

Home | Current Version | Previous Version | Text Only | Print | Product List | Glossary On
Versions: 1 2 3 4 5 6 7 8 9 10 11 12 13 14 15 16
000
FTUS41 KBTV 190531
TAFMPV
TAF
KMPV 190531Z 1906/2006 20003KT P6SM SCT250
     FM191500 18012G18KT P6SM SCT200
     FM192100 18009KT P6SM OVC080
     FM200100 17006KT 6SM BR VCSH OVC070
     FM200500 17005KT 6SM -RA BR OVC050=

USA.gov is the U.S. government's official web portal to all federal, state and local government web resources and services.